Flintstone, Maryland
Current Conditions -  °F | °C
As of 11:38 AM on Saturday 22 Nov 2014 (Local Time) from KCBE Reporting Station
Scattered Clouds Scattered Clouds  
Wind Chill: 34°   Ceiling: Unl
Heat Index: 34°   Visibility: 10mi
Dew Point: 16°   Wind: 0mph
Humidity: 48%   Direction: NA
Pressure: 30.39"   Gusts: NA
Location:  39.7°N, 78.57°W
Report Text: KCBE 221638Z AUTO 00000KT 10SM SCT080 01/M09 A3039 RMK AO1
Loading
Personal Weather Stations






























Interactive Weather Map New forecast layout! Learn more

10-Day Weather Forecast

Advertisements
Track Severe Weather on mobile